Time;durP1;ratioP1;P1;durP2;ratioP2;P2;SDS_P1;SDS_P2;PMS_P1;PMS_P2;Temp;Humidity;BMP_temperature;BMP_pressure;BME280_temperature;BME280_humidity;BME280_pressure;Samples;Min_cycle;Max_cycle;Signal;HPM_P1;HPM_P2
2022/05/07 00:01:31;;;;;;;17.27;12.38;;;18.70;92.10;;;;;;4592412;19;20044;-26
2022/05/07 00:03:01;;;;;;;16.50;11.77;;;18.70;92.10;;;;;;4593135;19;20050;-26
2022/05/07 00:04:36;;;;;;;18.58;13.48;;;18.70;92.10;;;;;;4593746;19;20014;-25
2022/05/07 00:06:07;;;;;;;19.35;13.57;;;18.70;92.00;;;;;;4593131;19;20088;-26
2022/05/07 00:07:38;;;;;;;19.13;14.27;;;18.70;92.00;;;;;;4589469;19;20568;-25
2022/05/07 00:09:08;;;;;;;18.77;13.95;;;18.70;91.90;;;;;;4593003;19;20011;-24
2022/05/07 00:10:42;;;;;;;19.92;14.05;;;18.70;91.90;;;;;;4593812;19;20082;-28
2022/05/07 00:12:13;;;;;;;18.23;13.80;;;18.70;91.90;;;;;;4593256;19;20015;-26
2022/05/07 00:13:45;;;;;;;18.30;14.35;;;18.70;91.90;;;;;;4593290;19;20010;-25
2022/05/07 00:15:16;;;;;;;17.20;13.30;;;18.70;91.90;;;;;;4593305;19;20479;-26
2022/05/07 00:18:37;;;;;;;18.52;13.15;;;18.60;91.90;;;;;;4592880;19;20018;-26
2022/05/07 00:20:09;;;;;;;19.30;13.52;;;18.60;91.90;;;;;;4593050;19;20082;-25
2022/05/07 00:21:40;;;;;;;;;;;18.60;91.90;;;;;;4594421;19;20031;-26
2022/05/07 00:23:12;;;;;;;16.83;12.53;;;18.60;91.90;;;;;;4593203;19;19915;-23
2022/05/07 00:24:42;;;;;;;;;;;18.60;91.90;;;;;;4593833;19;20421;-25
2022/05/07 00:26:14;;;;;;;16.95;12.20;;;18.60;91.90;;;;;;4590323;19;19918;-23
2022/05/07 00:27:45;;;;;;;19.77;13.02;;;18.60;91.90;;;;;;4590540;19;20010;-27
2022/05/07 00:29:16;;;;;;;18.60;13.35;;;18.60;91.80;;;;;;4591546;19;20019;-27
2022/05/07 00:30:47;;;;;;;19.17;13.10;;;18.60;91.80;;;;;;4592783;19;20334;-25
2022/05/07 00:32:18;;;;;;;18.75;13.90;;;18.60;91.80;;;;;;4593169;19;20373;-23
2022/05/07 00:33:49;;;;;;;20.40;14.60;;;18.60;91.80;;;;;;4593720;19;20002;-26
2022/05/07 00:35:20;;;;;;;20.85;14.40;;;18.60;91.80;;;;;;4592751;19;20015;-25
2022/05/07 00:36:51;;;;;;;17.83;13.63;;;18.60;91.80;;;;;;4592850;19;20022;-27
2022/05/07 00:38:22;;;;;;;20.63;13.95;;;18.50;91.80;;;;;;4593448;19;20002;-25
2022/05/07 00:39:53;;;;;;;18.48;13.80;;;18.60;91.80;;;;;;4592960;19;20018;-25
2022/05/07 00:41:24;;;;;;;18.15;13.02;;;18.60;91.80;;;;;;4591474;19;20364;-27
2022/05/07 00:42:55;;;;;;;17.67;12.70;;;18.60;91.80;;;;;;4591892;19;20342;-23
2022/05/07 00:44:26;;;;;;;18.48;13.13;;;18.60;91.80;;;;;;4592131;19;20071;-26
2022/05/07 00:45:57;;;;;;;17.70;13.30;;;18.60;91.80;;;;;;4593146;19;20421;-26
2022/05/07 00:47:31;;;;;;;18.73;13.13;;;18.50;91.70;;;;;;4591365;19;20037;-25
2022/05/07 00:49:02;;;;;;;17.65;12.73;;;18.60;91.70;;;;;;4591614;19;20082;-25
2022/05/07 00:52:23;;;;;;;17.90;12.73;;;18.50;91.70;;;;;;4592373;19;20349;-23
2022/05/07 00:53:54;;;;;;;18.00;12.25;;;18.50;91.70;;;;;;4592479;19;20017;-24
2022/05/07 00:55:25;;;;;;;18.83;13.50;;;18.50;91.70;;;;;;4592741;19;20034;-26
2022/05/07 00:56:56;;;;;;;18.85;13.40;;;18.50;91.70;;;;;;4592826;19;20018;-24
2022/05/07 00:58:27;;;;;;;18.17;13.05;;;18.50;91.70;;;;;;4592597;19;20025;-26
2022/05/07 00:59:58;;;;;;;19.67;13.90;;;18.50;91.70;;;;;;4591403;19;20045;-26
2022/05/07 01:01:29;;;;;;;16.40;13.00;;;18.50;91.60;;;;;;4591900;19;20014;-23
2022/05/07 01:03:00;;;;;;;18.73;13.70;;;18.50;91.70;;;;;;4592471;19;20014;-24
2022/05/07 01:04:31;;;;;;;18.65;13.15;;;18.50;91.70;;;;;;4592118;19;20015;-24
2022/05/07 01:06:02;;;;;;;16.80;12.85;;;18.50;91.60;;;;;;4592412;19;20017;-26
2022/05/07 01:07:34;;;;;;;17.85;13.45;;;18.50;91.60;;;;;;4590092;19;20087;-24
2022/05/07 01:09:05;;;;;;;16.17;12.63;;;18.50;91.60;;;;;;4591515;19;20021;-24
2022/05/07 01:10:36;;;;;;;15.18;12.48;;;18.50;91.60;;;;;;4589524;19;20014;-24
2022/05/07 01:12:07;;;;;;;16.30;12.82;;;18.50;91.60;;;;;;4590604;19;20006;-25
2022/05/07 01:13:38;;;;;;;17.40;12.25;;;18.50;91.60;;;;;;4591359;19;20019;-25
2022/05/07 01:15:10;;;;;;;15.00;12.23;;;18.50;91.60;;;;;;4591359;19;20027;-23
2022/05/07 01:16:41;;;;;;;17.05;12.35;;;18.50;91.60;;;;;;4588689;19;20539;-25
2022/05/07 01:18:12;;;;;;;15.65;11.90;;;18.50;91.60;;;;;;4591210;19;20014;-23
2022/05/07 01:19:43;;;;;;;14.52;10.60;;;18.50;91.60;;;;;;4592231;19;20096;-24
2022/05/07 01:21:16;;;;;;;16.45;10.48;;;18.40;91.50;;;;;;4591876;19;20019;-26
2022/05/07 01:22:47;;;;;;;14.80;10.68;;;18.40;91.50;;;;;;4592111;19;20359;-25
2022/05/07 01:24:19;;;;;;;15.82;11.43;;;18.40;91.50;;;;;;4591070;19;20014;-22
2022/05/07 01:25:50;;;;;;;16.13;10.68;;;18.40;91.50;;;;;;4591891;19;20007;-26
2022/05/07 01:27:21;;;;;;;15.35;10.00;;;18.40;91.50;;;;;;4590877;19;20010;-26
2022/05/07 01:28:57;;;;;;;;;;;18.40;91.50;;;;;;4590609;19;20021;-23
2022/05/07 01:30:28;;;;;;;;;;;18.40;91.50;;;;;;4590459;19;19918;-27
2022/05/07 01:31:59;;;;;;;;;;;18.50;91.60;;;;;;4592220;19;19944;-25
2022/05/07 01:33:33;;;;;;;;;;;18.40;91.50;;;;;;4591192;19;19915;-25
2022/05/07 01:35:04;;;;;;;;;;;18.50;91.50;;;;;;4591991;19;20265;-25
2022/05/07 01:36:35;;;;;;;;;;;18.40;91.50;;;;;;4592823;19;19922;-25
2022/05/07 01:38:06;;;;;;;;;;;18.40;91.50;;;;;;4592331;19;19943;-22
2022/05/07 01:39:37;;;;;;;;;;;18.40;91.40;;;;;;4592463;19;19935;-26
2022/05/07 01:41:08;;;;;;;;;;;18.40;91.40;;;;;;4592521;19;19922;-24
2022/05/07 01:42:39;;;;;;;;;;;18.40;91.40;;;;;;4592434;19;19974;-27
2022/05/07 01:44:10;;;;;;;;;;;18.40;91.40;;;;;;4592503;19;20334;-26
2022/05/07 01:45:41;;;;;;;;;;;18.40;91.40;;;;;;4592429;19;19922;-26
2022/05/07 01:49:01;;;;;;;;;;;18.40;91.30;;;;;;4592201;19;19919;-23
2022/05/07 01:50:32;;;;;;;;;;;18.40;91.30;;;;;;4592552;19;20226;-24
2022/05/07 01:52:03;;;;;;;;;;;18.40;91.30;;;;;;4591908;19;20387;-24
2022/05/07 01:53:34;;;;;;;;;;;18.40;91.20;;;;;;4592198;19;19933;-24
2022/05/07 01:55:05;;;;;;;;;;;18.40;91.20;;;;;;4592344;19;19978;-27
2022/05/07 01:56:36;;;;;;;;;;;18.40;91.20;;;;;;4591778;19;19926;-24
2022/05/07 01:58:07;;;;;;;;;;;18.40;91.20;;;;;;4591542;19;19914;-23
2022/05/07 01:59:38;;;;;;;;;;;18.40;91.20;;;;;;4591393;19;20256;-25
2022/05/07 02:01:10;;;;;;;;;;;18.40;91.20;;;;;;4592026;19;19978;-23
2022/05/07 02:02:41;;;;;;;;;;;18.40;91.20;;;;;;4591719;19;19919;-24
2022/05/07 02:04:12;;;;;;;;;;;18.40;91.20;;;;;;4591953;19;19974;-25
2022/05/07 02:05:42;;;;;;;;;;;18.40;91.10;;;;;;4589679;19;19918;-26
2022/05/07 02:07:13;;;;;;;;;;;18.40;91.10;;;;;;4590365;19;19923;-25
2022/05/07 02:08:44;;;;;;;;;;;18.40;91.10;;;;;;4591646;19;20260;-26
2022/05/07 02:10:15;;;;;;;;;;;18.30;91.00;;;;;;4591870;19;19988;-24
2022/05/07 02:11:46;;;;;;;;;;;18.30;91.00;;;;;;4591904;19;19974;-26
2022/05/07 02:13:17;;;;;;;;;;;18.30;91.00;;;;;;4591474;19;19922;-25
2022/05/07 02:14:48;;;;;;;;;;;18.40;91.00;;;;;;4590615;19;19915;-26
2022/05/07 02:16:19;;;;;;;;;;;18.30;90.90;;;;;;4591168;19;20252;-25
2022/05/07 02:17:50;;;;;;;;;;;18.30;90.90;;;;;;4591535;19;19936;-24
2022/05/07 02:19:21;;;;;;;;;;;18.30;90.90;;;;;;4591582;19;19932;-23
2022/05/07 02:20:53;;;;;;;;;;;18.30;90.90;;;;;;4591734;19;19914;-24
2022/05/07 02:22:24;;;;;;;;;;;18.30;90.90;;;;;;4592015;19;19919;-23
2022/05/07 02:23:55;;;;;;;;;;;18.30;90.80;;;;;;4591952;19;19955;-25
2022/05/07 02:25:26;;;;;;;;;;;18.30;90.80;;;;;;4590383;19;19918;-23
2022/05/07 02:26:59;;;;;;;;;;;18.40;90.90;;;;;;4590994;19;19918;-26
2022/05/07 02:28:30;;;;;;;;;;;18.30;90.80;;;;;;4591384;19;19934;-26
2022/05/07 02:30:00;;;;;;;;;;;18.30;90.80;;;;;;4591398;19;19978;-28
2022/05/07 02:31:32;;;;;;;;;;;18.30;90.80;;;;;;4591318;19;19926;-26
2022/05/07 02:33:02;;;;;;;;;;;18.30;90.80;;;;;;4591088;19;20240;-26
2022/05/07 02:34:34;;;;;;;;;;;18.30;90.80;;;;;;4591538;19;19930;-23
2022/05/07 02:36:05;;;;;;;;;;;18.30;90.80;;;;;;4591164;19;19970;-24
2022/05/07 02:37:36;;;;;;;;;;;18.30;90.80;;;;;;4591213;19;19970;-26
2022/05/07 02:39:06;;;;;;;;;;;18.30;90.80;;;;;;4591337;19;20238;-24
2022/05/07 02:42:43;;;;;;;;;;;18.30;90.70;;;;;;4590910;19;20285;-23
2022/05/07 02:44:14;;;;;;;;;;;18.30;90.80;;;;;;4590957;19;19923;-26
2022/05/07 02:45:45;;;;;;;;;;;18.30;90.70;;;;;;4591217;19;19983;-25
2022/05/07 02:47:16;;;;;;;;;;;18.30;90.70;;;;;;4590896;19;19926;-27
2022/05/07 02:48:47;;;;;;;;;;;18.30;90.60;;;;;;4589608;19;19935;-22
2022/05/07 02:50:18;;;;;;;;;;;18.30;90.60;;;;;;4590547;19;20302;-26
2022/05/07 02:51:49;;;;;;;;;;;18.30;90.60;;;;;;4591120;19;19950;-25
2022/05/07 02:53:20;;;;;;;;;;;18.30;90.50;;;;;;4591236;19;19918;-25
2022/05/07 02:54:51;;;;;;;;;;;18.30;90.50;;;;;;4590884;19;19974;-24
2022/05/07 02:56:22;;;;;;;;;;;18.30;90.40;;;;;;4591472;19;20005;-25
2022/05/07 02:57:53;;;;;;;;;;;18.30;90.40;;;;;;4591080;19;19914;-23
2022/05/07 02:59:24;;;;;;;;;;;18.30;90.40;;;;;;4591176;19;19914;-25
2022/05/07 03:00:55;;;;;;;;;;;18.30;90.40;;;;;;4590810;19;19915;-26
2022/05/07 03:02:26;;;;;;;;;;;18.30;90.40;;;;;;4590851;19;20311;-23
2022/05/07 03:03:57;;;;;;;;;;;18.30;90.40;;;;;;4591377;19;19915;-24
2022/05/07 03:05:29;;;;;;;;;;;18.30;90.40;;;;;;4591399;19;19915;-25
2022/05/07 03:07:00;;;;;;;;;;;18.30;90.40;;;;;;4590172;19;19922;-25
2022/05/07 03:08:31;;;;;;;;;;;18.30;90.40;;;;;;4591154;19;19914;-25
2022/05/07 03:10:02;;;;;;;;;;;18.30;90.40;;;;;;4591378;19;19929;-25
2022/05/07 03:11:34;;;;;;;;;;;18.30;90.60;;;;;;4590510;19;19919;-24
2022/05/07 03:13:05;;;;;;;;;;;18.30;90.40;;;;;;4589622;19;19992;-25
2022/05/07 03:14:36;;;;;;;;;;;18.30;90.40;;;;;;4590235;19;20341;-25
2022/05/07 03:16:07;;;;;;;;;;;18.20;90.30;;;;;;4590860;19;19915;-26
2022/05/07 03:17:38;;;;;;;;;;;18.30;90.40;;;;;;4588914;19;20333;-26
2022/05/07 03:19:10;;;;;;;;;;;18.30;90.30;;;;;;4590883;19;20329;-25
2022/05/07 03:20:41;;;;;;;;;;;18.30;90.30;;;;;;4591027;19;19915;-25
2022/05/07 03:22:12;;;;;;;;;;;18.30;90.30;;;;;;4590756;19;19914;-24
2022/05/07 03:23:44;;;;;;;;;;;18.30;90.30;;;;;;4590564;19;19966;-23
2022/05/07 03:25:15;;;;;;;;;;;18.20;90.30;;;;;;4590977;19;19918;-26
2022/05/07 03:26:46;;;;;;;;;;;18.30;90.30;;;;;;4590495;19;19991;-26
2022/05/07 03:28:17;;;;;;;;;;;18.30;90.30;;;;;;4590237;19;20352;-24
2022/05/07 03:29:48;;;;;;;;;;;18.30;90.30;;;;;;4588991;19;19919;-25
2022/05/07 03:31:19;;;;;;;;;;;18.30;90.30;;;;;;4590512;19;20324;-25
2022/05/07 03:32:50;;;;;;;;;;;18.20;90.30;;;;;;4590650;19;20338;-23
2022/05/07 03:34:21;;;;;;;;;;;18.20;90.30;;;;;;4590065;19;19919;-27
2022/05/07 03:35:52;;;;;;;;;;;18.30;90.30;;;;;;4590610;19;19938;-23
2022/05/07 03:37:23;;;;;;;;;;;18.30;90.30;;;;;;4590645;19;20001;-25
2022/05/07 03:38:54;;;;;;;;;;;18.30;90.30;;;;;;4590344;19;19918;-24
2022/05/07 03:40:27;;;;;;;;;;;18.30;90.30;;;;;;4589226;19;19974;-24
2022/05/07 03:41:57;;;;;;;;;;;18.30;90.30;;;;;;4590075;19;19934;-23
2022/05/07 03:43:28;;;;;;;;;;;18.30;90.30;;;;;;4590650;19;19947;-22
2022/05/07 03:45:00;;;;;;;;;;;18.30;90.30;;;;;;4590813;19;20331;-26
2022/05/07 03:46:31;;;;;;;;;;;18.30;90.30;;;;;;4589010;19;19922;-25
2022/05/07 03:48:02;;;;;;;;;;;18.30;90.30;;;;;;4589727;19;19915;-24
2022/05/07 03:49:32;;;;;;;;;;;18.30;90.30;;;;;;4590712;19;19915;-23
2022/05/07 03:51:04;;;;;;;;;;;18.30;90.30;;;;;;4588838;19;19953;-24
2022/05/07 03:54:24;;;;;;;;;;;18.30;90.40;;;;;;4589387;19;19986;-24
2022/05/07 03:55:55;;;;;;;;;;;18.30;90.40;;;;;;4589919;19;19915;-27
2022/05/07 03:57:26;;;;;;;;;;;18.30;90.40;;;;;;4589894;19;19943;-26
2022/05/07 03:58:57;;;;;;;;;;;18.30;90.40;;;;;;4590016;19;19918;-26
2022/05/07 04:00:28;;;;;;;;;;;18.30;90.40;;;;;;4591397;19;21090;-24
2022/05/07 04:01:59;;;;;;;;;;;18.30;90.40;;;;;;4594693;19;19914;-25
2022/05/07 04:03:30;;;;;;;;;;;18.30;90.40;;;;;;4594295;19;19919;-22
2022/05/07 04:05:01;;;;;;;;;;;18.30;90.50;;;;;;4594676;19;19917;-25
2022/05/07 04:06:32;;;;;;;;;;;18.30;90.50;;;;;;4594795;19;19934;-25
2022/05/07 04:08:03;;;;;;;;;;;18.30;90.50;;;;;;4594557;19;19944;-23
2022/05/07 04:09:36;;;;;;;;;;;18.30;90.50;;;;;;4593338;19;20388;-24
2022/05/07 04:11:06;;;;;;;;;;;18.30;90.50;;;;;;4593841;19;19928;-25
2022/05/07 04:12:37;;;;;;;;;;;18.30;90.50;;;;;;4594029;19;19926;-25
2022/05/07 04:14:08;;;;;;;;;;;18.30;90.60;;;;;;4591808;19;19917;-27
2022/05/07 04:15:39;;;;;;;;;;;18.30;90.60;;;;;;4592102;19;20232;-23
2022/05/07 04:17:10;;;;;;;;;;;18.30;90.60;;;;;;4591131;19;19911;-24
2022/05/07 04:18:41;;;;;;;;;;;18.40;90.60;;;;;;4592361;19;19919;-23
2022/05/07 04:20:12;;;;;;;;;;;18.40;90.60;;;;;;4591932;19;19964;-27
2022/05/07 04:21:43;;;;;;;;;;;18.40;90.70;;;;;;4592491;19;20014;-26
2022/05/07 04:23:14;;;;;;;;;;;18.40;90.70;;;;;;4591846;19;19918;-26
2022/05/07 04:24:45;;;;;;;;;;;18.40;90.70;;;;;;4591708;19;19926;-24
2022/05/07 04:26:16;;;;;;;;;;;18.40;90.70;;;;;;4591914;19;19918;-22
2022/05/07 04:27:47;;;;;;;;;;;18.40;90.80;;;;;;4590335;19;20468;-25
2022/05/07 04:29:18;;;;;;;;;;;18.40;90.80;;;;;;4590547;19;19924;-26
2022/05/07 04:30:49;;;;;;;;;;;18.40;90.80;;;;;;4591855;19;19918;-24
2022/05/07 04:32:20;;;;;;;;;;;18.40;90.90;;;;;;4591832;19;19914;-25
2022/05/07 04:33:51;;;;;;;;;;;18.40;90.90;;;;;;4593776;19;20041;-23
2022/05/07 04:35:22;;;;;;;;;;;18.40;90.90;;;;;;4593836;19;20364;-23
2022/05/07 04:36:53;;;;;;;;;;;18.40;91.00;;;;;;4591614;19;19915;-25
2022/05/07 04:38:24;;;;;;;;;;;18.40;91.00;;;;;;4591498;19;19917;-25
2022/05/07 04:39:55;;;;;;;;;;;18.40;91.30;;;;;;4591720;19;19922;-24
2022/05/07 04:41:26;;;;;;;;;;;18.40;91.10;;;;;;4591897;19;19917;-26
2022/05/07 04:42:57;;;;;;;;;;;18.40;91.10;;;;;;4591339;19;20278;-25
2022/05/07 04:44:28;;;;;;;;;;;18.40;91.10;;;;;;4591785;19;19950;-24
2022/05/07 04:45:59;;;;;;;;;;;18.40;91.10;;;;;;4593148;19;19914;-23
2022/05/07 04:47:30;;;;;;;;;;;18.40;91.20;;;;;;4592483;19;19942;-25
2022/05/07 04:49:01;;;;;;;;;;;18.50;91.20;;;;;;4593462;19;20370;-23
2022/05/07 04:50:31;;;;;;;;;;;18.50;91.20;;;;;;4593346;19;19934;-25
2022/05/07 04:52:05;;;;;;;;;;;18.50;91.20;;;;;;4594637;19;19978;-26
2022/05/07 04:53:36;;;;;;;;;;;18.10;91.50;;;;;;4594362;19;19950;-24
2022/05/07 04:55:07;;;;;;;7.90;6.40;;;16.70;93.40;;;;;;4592405;19;19921;-23
2022/05/07 04:56:38;;;;;;;;;;;15.70;94.80;;;;;;4593252;19;20009;-26
2022/05/07 04:58:09;;;;;;;;;;;15.20;95.90;;;;;;4593834;19;19918;-24
2022/05/07 04:59:40;;;;;;;;;;;14.80;96.60;;;;;;4593049;19;19910;-22
2022/05/07 05:01:11;;;;;;;;;;;14.60;97.30;;;;;;4593500;19;19911;-25
2022/05/07 05:02:43;;;;;;;7.90;6.75;;;14.40;97.70;;;;;;4592870;19;19934;-25
2022/05/07 05:04:14;;;;;;;9.13;7.70;;;14.30;98.10;;;;;;4592609;19;20010;-24
2022/05/07 05:05:45;;;;;;;9.90;8.35;;;14.30;98.80;;;;;;4592455;19;20029;-24
2022/05/07 05:07:16;;;;;;;;;;;14.20;98.70;;;;;;4592698;19;20249;-26
2022/05/07 05:08:47;;;;;;;;;;;14.20;98.90;;;;;;4593667;19;19922;-25
2022/05/07 05:10:18;;;;;;;;;;;14.20;99.20;;;;;;4592782;19;19918;-29
2022/05/07 05:11:49;;;;;;;;;;;14.20;99.40;;;;;;4591690;19;19927;-25
2022/05/07 05:13:20;;;;;;;;;;;14.20;99.80;;;;;;4591454;19;19915;-25
2022/05/07 05:15:07;;;;;;;;;;;14.20;99.90;;;;;;4593018;19;20289;-26
2022/05/07 05:16:38;;;;;;;;;;;14.10;99.90;;;;;;4592399;19;19941;-24
2022/05/07 05:18:09;;;;;;;;;;;14.20;99.90;;;;;;4593152;19;19949;-24
2022/05/07 05:19:39;;;;;;;;;;;14.10;99.90;;;;;;4592899;19;19918;-22
2022/05/07 05:21:10;;;;;;;;;;;14.10;99.90;;;;;;4593513;19;19921;-26
2022/05/07 05:22:45;;;;;;;;;;;14.20;99.90;;;;;;4592735;19;19978;-23
2022/05/07 05:24:19;;;;;;;;;;;14.10;99.90;;;;;;4592573;19;19918;-22
2022/05/07 05:25:50;;;;;;;;;;;14.20;99.90;;;;;;4592319;19;19918;-26
2022/05/07 05:27:21;;;;;;;;;;;14.10;99.90;;;;;;4592544;19;19910;-25
2022/05/07 05:28:52;;;;;;;;;;;14.20;99.90;;;;;;4592090;19;20247;-24
2022/05/07 05:30:24;;;;;;;;;;;14.20;99.90;;;;;;4592878;19;19922;-24
2022/05/07 05:31:55;;;;;;;;;;;14.20;99.90;;;;;;4592365;19;19927;-25
2022/05/07 05:33:26;;;;;;;;;;;14.20;99.90;;;;;;4592502;19;20337;-23
2022/05/07 05:34:58;;;;;;;;;;;14.20;99.90;;;;;;4592560;19;19940;-26
2022/05/07 05:36:30;;;;;;;;;;;14.20;99.90;;;;;;4592569;19;19919;-27
2022/05/07 05:38:01;;;;;;;;;;;14.30;99.90;;;;;;4592709;19;19911;-28
2022/05/07 05:39:32;;;;;;;;;;;14.30;99.90;;;;;;4592362;19;20340;-24
2022/05/07 05:41:03;;;;;;;;;;;14.30;99.90;;;;;;4592519;19;19934;-24
2022/05/07 05:42:34;;;;;;;;;;;14.30;99.90;;;;;;4591368;19;19922;-26
2022/05/07 05:44:05;;;;;;;;;;;14.30;99.90;;;;;;4592176;19;20336;-25
2022/05/07 05:45:36;;;;;;;;;;;14.30;99.90;;;;;;4591190;19;20395;-25
2022/05/07 05:47:07;;;;;;;;;;;14.30;99.90;;;;;;4591518;19;19974;-26
2022/05/07 05:48:38;;;;;;;;;;;14.30;99.90;;;;;;4593048;19;19922;-23
2022/05/07 05:50:09;;;;;;;;;;;14.40;99.90;;;;;;4592389;19;19923;-23
2022/05/07 05:51:40;;;;;;;;;;;14.30;99.90;;;;;;4592265;19;19919;-26
2022/05/07 05:53:11;;;;;;;;;;;14.30;99.90;;;;;;4592736;19;19990;-23
2022/05/07 05:54:42;;;;;;;;;;;14.40;99.90;;;;;;4592781;19;19963;-25
2022/05/07 05:56:13;;;;;;;;;;;14.30;99.90;;;;;;4591958;19;19914;-26
2022/05/07 05:57:44;;;;;;;;;;;14.30;99.90;;;;;;4592322;19;19977;-25
2022/05/07 05:59:15;;;;;;;;;;;14.30;99.90;;;;;;4592725;19;19918;-26
2022/05/07 06:00:46;;;;;;;;;;;14.40;99.90;;;;;;4591844;19;19917;-25
2022/05/07 06:02:18;;;;;;;;;;;14.40;99.90;;;;;;4591806;19;20251;-25
2022/05/07 06:03:49;;;;;;;;;;;14.30;99.90;;;;;;4592174;19;19918;-24
2022/05/07 06:05:20;;;;;;;;;;;14.40;99.90;;;;;;4592465;19;19941;-25
2022/05/07 06:06:51;;;;;;;;;;;14.40;99.90;;;;;;4591821;19;19922;-29
2022/05/07 06:08:22;;;;;;;;;;;14.40;99.90;;;;;;4591890;19;19915;-25
2022/05/07 06:09:53;;;;;;;;;;;14.40;99.90;;;;;;4592210;19;19923;-23
2022/05/07 06:11:24;;;;;;;;;;;14.40;99.90;;;;;;4592383;19;19986;-25
2022/05/07 06:12:55;;;;;;;;;;;14.40;99.90;;;;;;4591896;19;19918;-23
2022/05/07 06:14:26;;;;;;;;;;;14.40;99.90;;;;;;4591566;19;20363;-23
2022/05/07 06:15:57;;;;;;;;;;;14.40;99.90;;;;;;4591743;19;19911;-26
2022/05/07 06:17:28;;;;;;;;;;;14.40;99.90;;;;;;4590654;19;19915;-23
2022/05/07 06:18:59;;;;;;;;;;;14.40;99.90;;;;;;4591630;19;19934;-23
2022/05/07 06:20:30;;;;;;;;;;;14.40;99.90;;;;;;4591292;19;20245;-26
2022/05/07 06:22:01;;;;;;;;;;;14.40;99.90;;;;;;4591615;19;19918;-26
2022/05/07 06:23:32;;;;;;;;;;;14.40;99.90;;;;;;4591992;19;19915;-26
2022/05/07 06:28:43;;;;;;;;;;;14.40;99.90;;;;;;4591372;19;19924;-27
2022/05/07 06:30:13;;;;;;;;;;;14.50;99.90;;;;;;4591760;19;19914;-25
2022/05/07 06:31:44;;;;;;;;;;;14.50;99.90;;;;;;4591628;19;20257;-23
2022/05/07 06:33:15;;;;;;;;;;;14.50;99.90;;;;;;4591583;19;19925;-25
2022/05/07 06:34:46;;;;;;;;;;;14.50;99.90;;;;;;4590479;19;19929;-26
2022/05/07 06:36:17;;;;;;;;;;;14.60;99.90;;;;;;4590244;19;19918;-24
2022/05/07 06:37:48;;;;;;;;;;;14.60;99.90;;;;;;4591999;19;19911;-24
2022/05/07 06:39:20;;;;;;;;;;;14.60;99.90;;;;;;4593077;19;20274;-24
2022/05/07 06:40:52;;;;;;;;;;;14.60;99.90;;;;;;4590309;19;19942;-23
2022/05/07 06:42:22;;;;;;;;;;;14.60;99.90;;;;;;4590925;19;19918;-23
2022/05/07 06:43:53;;;;;;;;;;;14.60;99.90;;;;;;4591205;19;20360;-22
2022/05/07 06:45:24;;;;;;;;;;;14.70;99.90;;;;;;4591163;19;20006;-29
2022/05/07 06:46:56;;;;;;;;;;;14.70;99.90;;;;;;4590899;19;20010;-26
2022/05/07 06:48:27;;;;;;;;;;;14.60;99.90;;;;;;4591320;19;19911;-24
2022/05/07 06:49:58;;;;;;;;;;;14.60;99.90;;;;;;4590899;19;20277;-25
2022/05/07 06:51:31;;;;;;;;;;;14.60;99.90;;;;;;4591450;19;19915;-24
2022/05/07 06:53:02;;;;;;;;;;;14.60;99.90;;;;;;4591932;19;19922;-22
2022/05/07 06:54:33;;;;;;;;;;;14.60;99.90;;;;;;4593037;19;19911;-26
2022/05/07 06:56:04;;;;;;;;;;;14.70;99.90;;;;;;4591140;19;20015;-26
2022/05/07 06:57:35;;;;;;;;;;;14.60;99.90;;;;;;4591468;19;19926;-25
2022/05/07 06:59:07;;;;;;;;;;;14.70;99.90;;;;;;4591166;19;19974;-24
2022/05/07 07:00:38;;;;;;;;;;;14.60;99.90;;;;;;4590784;19;19926;-24
2022/05/07 07:02:09;;;;;;;;;;;14.60;99.90;;;;;;4592752;19;19982;-26
2022/05/07 07:03:40;;;;;;;;;;;14.60;99.90;;;;;;4593143;19;19948;-25
2022/05/07 07:05:11;;;;;;;;;;;14.60;99.90;;;;;;4592669;19;19929;-26
2022/05/07 07:06:42;;;;;;;;;;;14.60;99.90;;;;;;4592542;19;19911;-26
2022/05/07 07:08:13;;;;;;;;;;;14.60;99.90;;;;;;4592555;19;19911;-25
2022/05/07 07:09:44;;;;;;;;;;;14.60;99.90;;;;;;4591659;19;19966;-26
2022/05/07 07:11:15;;;;;;;;;;;14.60;99.90;;;;;;4592251;19;19921;-23
2022/05/07 07:12:46;;;;;;;;;;;14.60;99.90;;;;;;4591657;19;20177;-25
2022/05/07 07:14:17;;;;;;;;;;;14.60;99.90;;;;;;4592424;19;19919;-24
2022/05/07 07:15:48;;;;;;;;;;;14.60;99.90;;;;;;4592973;19;19926;-27
2022/05/07 07:17:19;;;;;;;;;;;14.60;99.90;;;;;;4590558;19;19998;-25
2022/05/07 07:18:50;;;;;;;;;;;14.60;99.90;;;;;;4592444;19;19919;-24
2022/05/07 07:20:22;;;;;;;;;;;14.60;99.90;;;;;;4592786;19;19911;-23
2022/05/07 07:21:53;;;;;;;;;;;14.60;99.90;;;;;;4592291;19;19911;-24
2022/05/07 07:23:24;;;;;;;;;;;14.60;99.90;;;;;;4592019;19;19970;-25
2022/05/07 07:24:55;;;;;;;;;;;14.60;99.90;;;;;;4592038;19;19938;-25
2022/05/07 07:26:27;;;;;;;;;;;14.60;99.90;;;;;;4592712;19;19914;-28
2022/05/07 07:27:58;;;;;;;;;;;14.60;99.90;;;;;;4591387;19;19923;-25
2022/05/07 07:29:29;;;;;;;;;;;14.60;99.90;;;;;;4590264;19;19951;-24
2022/05/07 07:31:00;;;;;;;;;;;14.60;99.90;;;;;;4591117;19;19911;-25
2022/05/07 07:32:30;;;;;;;;;;;14.60;99.90;;;;;;4592150;19;20262;-25
2022/05/07 07:34:02;;;;;;;;;;;14.60;99.90;;;;;;4591727;19;19982;-23
2022/05/07 07:35:33;;;;;;;;;;;14.60;99.90;;;;;;4594032;19;20329;-26
2022/05/07 07:37:04;;;;;;;;;;;14.60;99.90;;;;;;4596471;19;19918;-24
2022/05/07 07:38:37;;;;;;;;;;;14.60;99.90;;;;;;4597223;19;19906;-23
2022/05/07 07:40:08;;;;;;;;;;;14.60;99.90;;;;;;4596860;19;19919;-26
2022/05/07 07:41:39;;;;;;;;;;;14.60;99.90;;;;;;4595505;19;19942;-22
2022/05/07 07:43:10;;;;;;;;;;;14.70;99.90;;;;;;4597317;19;20264;-24
2022/05/07 07:44:41;;;;;;;;;;;14.70;99.90;;;;;;4593639;19;19990;-26
2022/05/07 07:48:22;;;;;;;;;;;14.70;99.90;;;;;;4593158;19;19923;-25
2022/05/07 07:49:52;;;;;;;;;;;14.70;99.90;;;;;;4592378;19;19922;-27
2022/05/07 07:51:24;;;;;;;;;;;14.70;99.90;;;;;;4592234;19;19911;-23
2022/05/07 07:52:55;;;;;;;;;;;14.70;99.90;;;;;;4591631;19;19956;-23
2022/05/07 07:54:26;;;;;;;;;;;14.60;99.90;;;;;;4591455;19;19922;-26
2022/05/07 07:55:57;;;;;;;;;;;14.70;99.90;;;;;;4592954;19;20416;-26
2022/05/07 07:57:28;;;;;;;;;;;14.70;99.90;;;;;;4592699;19;19926;-28
2022/05/07 07:58:59;;;;;;;;;;;14.70;99.90;;;;;;4593525;19;20426;-26
2022/05/07 08:00:30;;;;;;;;;;;14.70;99.90;;;;;;4592233;19;19922;-23
2022/05/07 08:02:01;;;;;;;;;;;14.70;99.90;;;;;;4591362;19;19922;-22
2022/05/07 08:03:33;;;;;;;;;;;14.70;99.90;;;;;;4593256;19;19964;-24
2022/05/07 08:05:04;;;;;;;;;;;14.70;99.90;;;;;;4591403;19;20263;-25
2022/05/07 08:06:36;;;;;;;;;;;14.70;99.90;;;;;;4592321;19;19923;-25
2022/05/07 08:11:47;;;;;;;;;;;14.70;99.90;;;;;;4590843;19;19914;-24
2022/05/07 08:13:18;;;;;;;;;;;15.00;99.90;;;;;;4590421;19;19946;-24
2022/05/07 08:14:49;;;;;;;;;;;15.40;99.90;;;;;;4592267;19;19918;-23
2022/05/07 08:16:20;;;;;;;;;;;15.80;99.90;;;;;;4592003;19;19915;-26
2022/05/07 08:17:52;;;;;;;3.78;2.42;;;16.10;99.90;;;;;;4590844;19;19978;-27
2022/05/07 08:19:23;;;;;;;3.88;2.55;;;16.50;99.90;;;;;;4591865;19;20498;-24
2022/05/07 08:20:55;;;;;;;5.63;3.28;;;16.80;99.90;;;;;;4592950;19;20462;-25
2022/05/07 08:22:27;;;;;;;5.45;3.30;;;17.10;99.60;;;;;;4592259;19;20008;-25
2022/05/07 08:23:58;;;;;;;2.92;1.98;;;17.40;99.90;;;;;;4592773;19;20463;-24
2022/05/07 08:25:29;;;;;;;5.05;2.90;;;17.70;98.00;;;;;;4592164;19;20010;-25
2022/05/07 08:27:00;;;;;;;;;;;17.90;97.90;;;;;;4593150;19;20018;-26
2022/05/07 08:28:31;;;;;;;;;;;18.20;98.40;;;;;;4594267;19;19978;-24
2022/05/07 08:30:02;;;;;;;;;;;18.60;99.90;;;;;;4595546;19;19941;-23
2022/05/07 08:31:33;;;;;;;;;;;18.80;99.00;;;;;;4601596;19;19919;-26
2022/05/07 08:33:04;;;;;;;;;;;19.00;96.10;;;;;;4601773;19;19938;-23
2022/05/07 08:34:35;;;;;;;;;;;19.10;96.30;;;;;;4601128;19;19923;-24
2022/05/07 08:36:07;;;;;;;;;;;19.20;98.00;;;;;;4601371;19;19925;-26
2022/05/07 08:37:37;;;;;;;;;;;19.40;95.70;;;;;;4600443;19;19915;-24
2022/05/07 08:39:08;;;;;;;;;;;19.40;95.00;;;;;;4601621;19;19919;-27
2022/05/07 08:40:42;;;;;;;;;;;19.60;95.20;;;;;;4600853;19;19919;-24
2022/05/07 08:42:13;;;;;;;;;;;19.70;96.90;;;;;;4600958;19;19915;-27
2022/05/07 08:43:44;;;;;;;;;;;19.70;95.20;;;;;;4599859;19;20303;-27
2022/05/07 08:45:15;;;;;;;;;;;19.70;94.10;;;;;;4601098;19;19911;-26
2022/05/07 08:46:46;;;;;;;;;;;19.80;94.60;;;;;;4598705;19;19943;-24
2022/05/07 08:48:18;;;;;;;;;;;19.80;94.50;;;;;;4600555;19;19915;-25
2022/05/07 08:49:49;;;;;;;;;;;19.90;92.60;;;;;;4602905;19;19922;-24
2022/05/07 08:51:21;;;;;;;;;;;19.90;93.60;;;;;;4603016;19;19919;-26
2022/05/07 08:52:52;;;;;;;;;;;19.90;92.80;;;;;;4603006;19;19915;-24
2022/05/07 08:54:23;;;;;;;;;;;19.90;92.90;;;;;;4602914;19;20299;-26
2022/05/07 08:55:54;;;;;;;;;;;19.90;92.00;;;;;;4601035;19;19931;-24